createdAt,value
2022-11-16T00:05:12.583Z,6.16
2022-11-16T00:07:39.735Z,6.20
2022-11-16T00:10:07.448Z,6.15
2022-11-16T00:12:34.640Z,6.15
2022-11-16T00:15:01.866Z,6.22
2022-11-16T00:17:29.079Z,6.23
2022-11-16T00:19:56.251Z,6.12
2022-11-16T00:22:23.437Z,6.16
2022-11-16T00:24:50.632Z,6.08
2022-11-16T00:27:17.863Z,6.11
2022-11-16T00:29:45.046Z,6.07
2022-11-16T00:32:12.395Z,6.07
2022-11-16T00:34:40.339Z,6.04
2022-11-16T00:37:07.524Z,6.03
2022-11-16T00:39:34.724Z,6.08
2022-11-16T00:42:01.964Z,6.02
2022-11-16T00:44:29.168Z,6.01
2022-11-16T00:46:56.363Z,5.91
2022-11-16T00:49:23.535Z,5.95
2022-11-16T00:51:50.683Z,5.95
2022-11-16T00:54:17.869Z,5.98
2022-11-16T00:56:45.056Z,5.93
2022-11-16T00:59:12.223Z,5.91
2022-11-16T01:01:39.489Z,5.94
2022-11-16T01:04:06.713Z,5.96
2022-11-16T01:06:33.910Z,5.97
2022-11-16T01:09:01.302Z,5.97
2022-11-16T01:11:47.325Z,5.92
2022-11-16T01:14:14.557Z,5.87
2022-11-16T01:16:41.744Z,5.84
2022-11-16T01:19:09.200Z,5.81
2022-11-16T01:21:36.375Z,5.81
2022-11-16T01:24:03.566Z,5.85
2022-11-16T01:26:30.752Z,5.73
2022-11-16T01:28:59.120Z,5.72
2022-11-16T01:31:26.336Z,5.65
2022-11-16T01:33:54.251Z,5.77
2022-11-16T01:36:21.431Z,5.87
2022-11-16T01:38:48.633Z,5.83
2022-11-16T01:41:18.547Z,5.86
2022-11-16T01:44:00.557Z,5.72
2022-11-16T01:46:28.371Z,5.62
2022-11-16T01:49:02.023Z,5.53
2022-11-16T01:51:29.364Z,5.53
2022-11-16T01:53:57.575Z,5.44
2022-11-16T01:56:25.885Z,5.37
2022-11-16T01:58:53.847Z,5.53
2022-11-16T02:01:21.089Z,5.69
2022-11-16T02:03:48.325Z,5.72
2022-11-16T02:06:18.543Z,5.76
2022-11-16T02:09:38.368Z,5.63
2022-11-16T02:12:37.634Z,5.57
2022-11-16T02:15:13.643Z,5.47
2022-11-16T02:17:51.869Z,5.55
2022-11-16T02:20:37.793Z,5.58
2022-11-16T02:23:31.924Z,5.51
2022-11-16T02:26:02.125Z,5.57
2022-11-16T02:28:44.252Z,5.50
2022-11-16T02:31:16.400Z,5.36
2022-11-16T02:33:44.688Z,5.46
2022-11-16T02:36:15.723Z,5.41
2022-11-16T02:38:47.871Z,5.57
2022-11-16T02:41:19.046Z,5.61
2022-11-16T02:43:49.734Z,5.57
2022-11-16T02:46:22.749Z,5.45
2022-11-16T02:48:53.071Z,5.38
2022-11-16T02:51:21.583Z,5.37
2022-11-16T02:54:00.839Z,5.38
2022-11-16T02:56:28.510Z,5.38
2022-11-16T02:58:57.216Z,5.30
2022-11-16T03:01:36.513Z,5.31
2022-11-16T03:04:08.657Z,5.33
2022-11-16T03:06:39.514Z,5.25
2022-11-16T03:09:12.123Z,5.29
2022-11-16T03:12:02.303Z,5.28
2022-11-16T03:14:35.607Z,5.29
2022-11-16T03:17:03.915Z,5.19
2022-11-16T03:19:43.555Z,5.25
2022-11-16T03:22:26.733Z,5.21
2022-11-16T03:24:54.198Z,5.23
2022-11-16T03:27:38.534Z,5.21
2022-11-16T03:30:09.426Z,5.12
2022-11-16T03:32:48.668Z,5.19
2022-11-16T03:35:18.444Z,5.04
2022-11-16T03:37:47.534Z,5.23
2022-11-16T03:40:14.918Z,5.26
2022-11-16T03:42:43.203Z,5.22
2022-11-16T03:45:11.180Z,5.17
2022-11-16T03:47:38.415Z,5.24
2022-11-16T03:50:06.015Z,5.26
2022-11-16T03:52:33.334Z,5.29
2022-11-16T03:55:00.518Z,5.29
2022-11-16T03:57:27.723Z,5.26
2022-11-16T03:59:54.881Z,5.22
2022-11-16T04:02:22.059Z,5.31
2022-11-16T04:05:07.581Z,5.24
2022-11-16T04:07:53.327Z,5.21
2022-11-16T04:10:38.971Z,5.23
2022-11-16T04:13:26.275Z,5.20
2022-11-16T04:16:12.074Z,5.10
2022-11-16T04:18:58.005Z,5.02
2022-11-16T04:22:11.157Z,5.04
2022-11-16T04:24:41.172Z,4.96
2022-11-16T04:27:29.550Z,4.96
2022-11-16T04:29:59.064Z,4.97
2022-11-16T04:32:44.842Z,4.95
2022-11-16T04:35:30.599Z,4.93
2022-11-16T04:37:58.815Z,5.04
2022-11-16T04:40:30.243Z,5.04
2022-11-16T04:42:59.628Z,5.13
2022-11-16T04:45:46.005Z,5.17
2022-11-16T04:48:14.453Z,5.19
2022-11-16T04:50:42.897Z,5.18
2022-11-16T04:53:10.689Z,5.20
2022-11-16T04:55:37.907Z,5.20
2022-11-16T04:58:05.551Z,5.26
2022-11-16T05:00:32.879Z,5.24
2022-11-16T05:03:01.685Z,5.17
2022-11-16T05:05:29.511Z,5.11
2022-11-16T05:07:56.737Z,5.17
2022-11-16T05:10:24.013Z,5.21
2022-11-16T05:12:51.210Z,5.29
2022-11-16T05:15:19.767Z,5.29
2022-11-16T05:17:47.481Z,5.33
2022-11-16T05:20:33.195Z,5.32
2022-11-16T05:23:00.445Z,5.36
2022-11-16T05:25:31.254Z,5.33
2022-11-16T05:28:01.150Z,5.29
2022-11-16T05:30:29.642Z,5.35
2022-11-16T05:32:56.814Z,5.40
2022-11-16T05:35:23.978Z,5.36
2022-11-16T05:37:51.205Z,5.48
2022-11-16T05:40:18.426Z,5.49
2022-11-16T05:42:45.595Z,5.50
2022-11-16T05:45:17.124Z,5.50
2022-11-16T05:47:47.043Z,5.46
2022-11-16T05:50:14.226Z,5.54
2022-11-16T05:52:41.430Z,5.60
2022-11-16T05:55:09.228Z,5.58
2022-11-16T05:57:37.041Z,5.64
2022-11-16T06:00:04.906Z,5.55
2022-11-16T06:02:33.335Z,5.64
2022-11-16T06:05:00.522Z,5.69
2022-11-16T06:07:27.772Z,5.69
2022-11-16T06:09:55.036Z,5.74
2022-11-16T06:12:22.223Z,5.68
2022-11-16T06:14:49.455Z,5.68
2022-11-16T06:17:16.640Z,5.69
2022-11-16T06:19:43.833Z,5.79
2022-11-16T06:22:10.973Z,5.79
2022-11-16T06:24:38.189Z,5.71
2022-11-16T06:27:05.401Z,5.81
2022-11-16T06:29:32.581Z,5.81
2022-11-16T06:31:59.826Z,5.82
2022-11-16T06:34:27.059Z,5.87
2022-11-16T06:36:54.228Z,5.86
2022-11-16T06:39:21.407Z,5.93
2022-11-16T06:41:48.596Z,5.82
2022-11-16T06:44:15.775Z,5.87
2022-11-16T06:46:42.968Z,5.88
2022-11-16T06:49:10.270Z,5.88
2022-11-16T06:51:37.438Z,5.82
2022-11-16T06:54:04.780Z,5.80
2022-11-16T06:56:34.678Z,5.88
2022-11-16T06:59:02.024Z,5.80
2022-11-16T07:01:29.350Z,5.82
2022-11-16T07:03:59.050Z,5.86
2022-11-16T07:06:26.229Z,5.85
2022-11-16T07:08:53.422Z,5.92
2022-11-16T07:11:20.632Z,5.95
2022-11-16T07:13:49.202Z,6.02
2022-11-16T07:16:16.644Z,5.91
2022-11-16T07:18:43.834Z,5.92
2022-11-16T07:21:15.926Z,6.01
2022-11-16T07:23:43.411Z,6.10
2022-11-16T07:26:11.155Z,6.07
2022-11-16T07:28:40.993Z,6.15
2022-11-16T07:31:13.960Z,6.17
2022-11-16T07:33:41.402Z,6.08
2022-11-16T07:36:14.006Z,6.15
2022-11-16T07:38:41.682Z,6.10
2022-11-16T07:41:11.883Z,6.12
2022-11-16T07:43:39.919Z,6.19
2022-11-16T07:49:09.987Z,6.12
2022-11-16T07:51:38.654Z,6.14
2022-11-16T07:54:06.590Z,6.07
2022-11-16T07:56:33.903Z,6.16
2022-11-16T07:59:01.500Z,6.14
2022-11-16T08:01:28.757Z,6.12
2022-11-16T08:03:56.038Z,6.12
2022-11-16T08:06:28.598Z,6.20
2022-11-16T08:08:58.680Z,6.14
2022-11-16T08:11:26.468Z,6.22
2022-11-16T08:13:53.694Z,6.15
2022-11-16T08:16:22.875Z,6.15
2022-11-16T08:18:50.333Z,6.07
2022-11-16T08:21:18.786Z,6.19
2022-11-16T08:23:46.133Z,6.22
2022-11-16T08:26:16.072Z,6.34
2022-11-16T08:28:44.852Z,6.24
2022-11-16T08:31:14.392Z,6.33
2022-11-16T08:33:41.962Z,6.37
2022-11-16T08:36:14.351Z,6.37
2022-11-16T08:38:41.801Z,6.43
2022-11-16T08:41:09.119Z,6.30
2022-11-16T08:43:36.470Z,6.42
2022-11-16T08:46:03.674Z,6.40
2022-11-16T08:48:31.219Z,6.40
2022-11-16T08:51:17.401Z,6.39
2022-11-16T08:53:47.977Z,6.32
2022-11-16T08:56:15.772Z,6.26
2022-11-16T08:58:44.188Z,6.30
2022-11-16T09:01:14.049Z,6.35
2022-11-16T09:03:41.720Z,6.39
2022-11-16T09:06:10.122Z,6.44
2022-11-16T09:08:38.632Z,6.44
2022-11-16T09:11:06.752Z,6.45
2022-11-16T09:13:34.031Z,6.42
2022-11-16T09:16:01.790Z,6.47
2022-11-16T09:18:29.834Z,6.50
2022-11-16T09:20:57.417Z,6.42
2022-11-16T09:23:25.685Z,6.38
2022-11-16T09:25:53.352Z,6.36
2022-11-16T09:28:21.551Z,6.33
2022-11-16T09:30:50.411Z,6.36
2022-11-16T09:33:17.739Z,6.29
2022-11-16T09:35:44.915Z,6.42
2022-11-16T09:38:17.480Z,6.38
2022-11-16T09:40:47.314Z,6.42
2022-11-16T09:43:29.341Z,6.45
2022-11-16T09:46:18.137Z,6.51
2022-11-16T09:48:45.460Z,6.57
2022-11-16T09:51:14.691Z,6.57
2022-11-16T09:53:53.068Z,6.61
2022-11-16T09:56:28.651Z,6.46
2022-11-16T09:59:06.044Z,6.50
2022-11-16T10:01:47.000Z,6.51
2022-11-16T10:04:22.469Z,6.58
2022-11-16T10:06:56.279Z,6.60
2022-11-16T10:09:24.190Z,6.62
2022-11-16T10:12:16.535Z,6.68
2022-11-16T10:15:23.584Z,6.63
2022-11-16T10:18:13.785Z,6.64
2022-11-16T10:20:50.503Z,6.63
2022-11-16T10:23:24.151Z,6.60
2022-11-16T10:25:58.891Z,6.58
2022-11-16T10:28:59.762Z,6.71
2022-11-16T10:31:37.757Z,6.65
2022-11-16T10:34:07.470Z,6.66
2022-11-16T10:36:36.387Z,6.62
2022-11-16T10:39:05.826Z,6.60
2022-11-16T10:41:35.570Z,6.64
2022-11-16T10:44:02.990Z,6.65
2022-11-16T10:46:38.397Z,6.65
2022-11-16T10:49:11.568Z,6.66
2022-11-16T10:51:38.963Z,6.63
2022-11-16T10:54:16.535Z,6.58
2022-11-16T10:56:49.672Z,6.64
2022-11-16T10:59:19.699Z,6.64
2022-11-16T11:01:53.065Z,6.76
2022-11-16T11:04:28.408Z,6.82
2022-11-16T11:07:22.183Z,6.79
2022-11-16T11:09:53.385Z,6.75
2022-11-16T11:12:40.629Z,6.72
2022-11-16T11:15:27.134Z,6.56
2022-11-16T11:18:16.701Z,6.61
2022-11-16T11:20:46.686Z,6.67
2022-11-16T11:23:23.135Z,6.76
2022-11-16T11:25:52.355Z,6.67
2022-11-16T11:28:31.927Z,6.56
2022-11-16T11:31:04.081Z,6.51
2022-11-16T11:33:36.928Z,6.51
2022-11-16T11:36:13.138Z,6.61
2022-11-16T11:39:03.413Z,6.52
2022-11-16T11:41:41.977Z,6.47
2022-11-16T11:44:20.330Z,6.51
2022-11-16T11:50:05.755Z,6.39
2022-11-16T11:52:48.946Z,6.33
2022-11-16T11:55:17.826Z,6.34
2022-11-16T11:57:46.550Z,6.35
2022-11-16T12:00:14.776Z,6.28
2022-11-16T12:02:58.171Z,6.27
2022-11-16T12:05:53.219Z,6.28
2022-11-16T12:08:47.366Z,6.29
2022-11-16T12:11:29.446Z,6.39
2022-11-16T12:14:14.948Z,6.30
2022-11-16T12:17:07.372Z,6.41
2022-11-16T12:19:58.119Z,6.33
2022-11-16T12:22:38.166Z,6.42
2022-11-16T12:25:27.825Z,6.37
2022-11-16T12:28:41.502Z,6.39
2022-11-16T12:31:19.656Z,6.34
2022-11-16T12:34:17.464Z,6.38
2022-11-16T12:37:13.233Z,6.36
2022-11-16T12:40:03.832Z,6.39
2022-11-16T12:42:42.128Z,6.34
2022-11-16T12:45:25.356Z,6.35
2022-11-16T12:48:08.876Z,6.32
2022-11-16T12:50:48.008Z,6.34
2022-11-16T12:53:41.496Z,6.34
2022-11-16T12:56:26.884Z,6.40
2022-11-16T12:59:15.289Z,6.44
2022-11-16T13:02:06.308Z,6.51
2022-11-16T13:04:38.155Z,6.41
2022-11-16T13:07:11.090Z,6.45
2022-11-16T13:09:49.011Z,6.50
2022-11-16T13:12:18.503Z,6.46
2022-11-16T13:14:50.326Z,6.48
2022-11-16T13:17:25.824Z,6.46
2022-11-16T13:20:19.959Z,6.42
2022-11-16T13:22:53.388Z,6.39
2022-11-16T13:25:43.279Z,6.43
2022-11-16T13:28:20.027Z,6.42
2022-11-16T13:30:52.400Z,6.45
2022-11-16T13:33:33.400Z,6.42
2022-11-16T13:36:32.621Z,6.38
2022-11-16T13:38:59.753Z,6.33
2022-11-16T13:41:38.006Z,6.42
2022-11-16T13:44:20.484Z,6.49
2022-11-16T13:46:56.801Z,6.47
2022-11-16T13:49:38.456Z,6.42
2022-11-16T13:52:23.226Z,6.51
2022-11-16T13:54:53.247Z,6.58
2022-11-16T13:57:49.690Z,6.56
2022-11-16T14:00:26.377Z,6.58
2022-11-16T14:03:18.531Z,6.41
2022-11-16T14:05:47.403Z,6.40
2022-11-16T14:08:20.777Z,6.46
2022-11-16T14:10:50.625Z,6.49
2022-11-16T14:13:47.218Z,6.42
2022-11-16T14:16:21.320Z,6.40
2022-11-16T14:18:49.984Z,6.46
2022-11-16T14:21:29.925Z,6.43
2022-11-16T14:24:25.439Z,6.47
2022-11-16T14:27:15.996Z,6.55
2022-11-16T14:30:09.699Z,6.49
2022-11-16T14:32:44.532Z,6.47
2022-11-16T14:35:36.549Z,6.43
2022-11-16T14:38:23.840Z,6.43
2022-11-16T14:40:58.873Z,6.46
2022-11-16T14:43:34.501Z,6.54
2022-11-16T14:46:16.055Z,6.62
2022-11-16T14:48:45.325Z,6.57
2022-11-16T14:51:20.631Z,6.58
2022-11-16T14:53:50.738Z,6.53
2022-11-16T14:56:19.130Z,6.52
2022-11-16T14:58:53.080Z,6.56
2022-11-16T15:01:23.044Z,6.53
2022-11-16T15:04:03.234Z,6.54
2022-11-16T15:06:41.071Z,6.59
2022-11-16T15:09:12.297Z,6.57
2022-11-16T15:12:00.140Z,6.58
2022-11-16T15:14:31.756Z,6.50
2022-11-16T15:17:00.227Z,6.57
2022-11-16T15:19:30.447Z,6.57
2022-11-16T15:22:00.433Z,6.56
2022-11-16T15:24:31.851Z,6.65
2022-11-16T15:27:30.272Z,6.60
2022-11-16T15:29:59.052Z,6.56
2022-11-16T15:32:26.260Z,6.56
2022-11-16T15:34:54.606Z,6.56
2022-11-16T15:37:31.539Z,6.63
2022-11-16T15:39:59.978Z,6.68
2022-11-16T15:42:28.321Z,6.67
2022-11-16T15:44:55.753Z,6.57
2022-11-16T15:47:23.871Z,6.48
2022-11-16T15:49:53.138Z,6.49
2022-11-16T15:52:43.683Z,6.46
2022-11-16T15:55:28.823Z,6.44
2022-11-16T15:58:01.376Z,6.44
2022-11-16T16:00:29.158Z,6.53
2022-11-16T16:03:23.403Z,6.44
2022-11-16T16:05:51.243Z,6.40
2022-11-16T16:08:37.291Z,6.38
2022-11-16T16:11:11.104Z,6.34
2022-11-16T16:13:56.846Z,6.42
2022-11-16T16:16:29.801Z,6.50
2022-11-16T16:19:01.618Z,6.49
2022-11-16T16:21:43.884Z,6.43
2022-11-16T16:24:31.208Z,6.34
2022-11-16T16:26:58.500Z,6.28
2022-11-16T16:29:28.290Z,6.12
2022-11-16T16:31:56.480Z,6.07
2022-11-16T16:34:23.676Z,6.14
2022-11-16T16:36:50.867Z,6.12
2022-11-16T16:39:18.238Z,6.11
2022-11-16T16:41:45.739Z,6.10
2022-11-16T16:44:16.291Z,6.02
2022-11-16T16:46:43.445Z,6.00
2022-11-16T16:49:10.680Z,5.93
2022-11-16T16:51:37.943Z,5.99
2022-11-16T16:54:05.442Z,5.96
2022-11-16T16:56:32.653Z,5.94
2022-11-16T16:58:59.831Z,5.93
2022-11-16T17:01:27.041Z,5.90
2022-11-16T17:03:54.252Z,5.90
2022-11-16T17:06:21.468Z,5.99
2022-11-16T17:08:48.721Z,5.98
2022-11-16T17:11:17.886Z,5.99
2022-11-16T17:13:45.067Z,5.99
2022-11-16T17:16:12.432Z,5.93
2022-11-16T17:18:39.644Z,5.89
2022-11-16T17:21:08.682Z,5.88
2022-11-16T17:23:36.638Z,5.86
2022-11-16T17:26:08.372Z,5.96
2022-11-16T17:28:35.749Z,5.98
2022-11-16T17:31:03.928Z,5.89
2022-11-16T17:33:38.684Z,5.93
2022-11-16T17:36:07.315Z,5.86
2022-11-16T17:38:35.156Z,5.90
2022-11-16T17:41:12.646Z,5.89
2022-11-16T17:43:40.743Z,5.90
2022-11-16T17:46:09.933Z,5.88
2022-11-16T17:48:38.344Z,5.81
2022-11-16T17:51:05.925Z,5.73
2022-11-16T17:53:36.866Z,5.84
2022-11-16T17:56:05.308Z,5.66
2022-11-16T17:58:33.715Z,5.70
2022-11-16T18:01:00.935Z,5.69
2022-11-16T18:03:31.151Z,5.73
2022-11-16T18:06:10.740Z,5.78
2022-11-16T18:08:37.991Z,5.75
2022-11-16T18:11:24.591Z,5.76
2022-11-16T18:13:56.719Z,5.71
2022-11-16T18:16:25.871Z,5.74
2022-11-16T18:19:01.084Z,5.73
2022-11-16T18:21:28.385Z,5.81
2022-11-16T18:23:55.644Z,5.78
2022-11-16T18:26:23.923Z,5.70
2022-11-16T18:28:53.188Z,5.71
2022-11-16T18:31:21.120Z,5.77
2022-11-16T18:33:51.650Z,5.78
2022-11-16T18:36:22.964Z,5.82
2022-11-16T18:38:50.287Z,5.86
2022-11-16T18:41:19.948Z,5.87
2022-11-16T18:44:01.172Z,5.74
2022-11-16T18:46:32.916Z,5.74
2022-11-16T18:49:00.401Z,5.79
2022-11-16T18:51:28.575Z,5.70
2022-11-16T18:53:56.093Z,5.69
2022-11-16T18:56:24.029Z,5.73
2022-11-16T18:58:52.718Z,5.73
2022-11-16T19:01:22.445Z,5.69
2022-11-16T19:03:50.070Z,5.55
2022-11-16T19:06:17.876Z,5.58
2022-11-16T19:08:50.511Z,5.58
2022-11-16T19:11:23.124Z,5.53
2022-11-16T19:13:53.912Z,5.55
2022-11-16T19:16:21.119Z,5.56
2022-11-16T19:18:48.764Z,5.59
2022-11-16T19:21:20.284Z,5.61
2022-11-16T19:23:51.831Z,5.64
2022-11-16T19:26:20.115Z,5.61
2022-11-16T19:28:48.823Z,5.64
2022-11-16T19:31:29.822Z,5.67
2022-11-16T19:34:01.351Z,5.68
2022-11-16T19:36:29.413Z,5.80
2022-11-16T19:38:57.208Z,5.79
2022-11-16T19:41:24.983Z,5.77
2022-11-16T19:43:57.176Z,5.74
2022-11-16T19:46:25.602Z,5.72
2022-11-16T19:48:53.345Z,5.68
2022-11-16T19:51:23.056Z,5.73
2022-11-16T19:53:50.287Z,5.70
2022-11-16T19:56:21.504Z,5.71
2022-11-16T19:58:48.993Z,5.78
2022-11-16T20:01:21.636Z,5.82
2022-11-16T20:03:51.624Z,5.84
2022-11-16T20:06:21.411Z,5.81
2022-11-16T20:08:50.642Z,5.90
2022-11-16T20:11:23.467Z,5.87
2022-11-16T20:13:52.262Z,5.92
2022-11-16T20:16:22.205Z,5.82
2022-11-16T20:18:50.323Z,5.84
2022-11-16T20:21:23.732Z,5.89
2022-11-16T20:23:51.917Z,5.79
2022-11-16T20:26:21.965Z,5.82
2022-11-16T20:28:53.252Z,5.85
2022-11-16T20:31:22.923Z,5.82
2022-11-16T20:33:55.581Z,5.79
2022-11-16T20:36:26.853Z,5.75
2022-11-16T20:38:54.252Z,5.78
2022-11-16T20:41:23.510Z,5.84
2022-11-16T20:43:51.474Z,5.79
2022-11-16T20:46:20.379Z,5.78
2022-11-16T20:48:47.645Z,5.78
2022-11-16T20:51:17.464Z,5.78
2022-11-16T20:53:45.587Z,5.80
2022-11-16T20:56:13.233Z,5.84
2022-11-16T20:58:40.702Z,5.84
2022-11-16T21:01:11.018Z,5.84
2022-11-16T21:03:38.606Z,5.84
2022-11-16T21:06:08.736Z,5.80
2022-11-16T21:08:37.164Z,5.83
2022-11-16T21:11:26.306Z,5.78
2022-11-16T21:14:12.118Z,5.75
2022-11-16T21:16:39.975Z,5.80
2022-11-16T21:19:07.564Z,5.75
2022-11-16T21:21:34.838Z,5.77
2022-11-16T21:24:02.099Z,5.74
2022-11-16T21:26:31.377Z,5.74
2022-11-16T21:28:58.819Z,5.68
2022-11-16T21:31:29.684Z,5.70
2022-11-16T21:33:57.485Z,5.72
2022-11-16T21:36:26.446Z,5.66
2022-11-16T21:38:54.645Z,5.70
2022-11-16T21:41:23.177Z,5.76
2022-11-16T21:43:50.874Z,5.72
2022-11-16T21:46:24.634Z,5.68
2022-11-16T21:48:52.917Z,5.67
2022-11-16T21:51:22.095Z,5.59
2022-11-16T21:53:49.771Z,5.54
2022-11-16T21:56:19.191Z,5.52
2022-11-16T21:58:46.672Z,5.54
2022-11-16T22:01:16.111Z,5.47
2022-11-16T22:03:44.570Z,5.44
2022-11-16T22:06:34.691Z,5.42
2022-11-16T22:09:02.149Z,5.38
2022-11-16T22:11:29.419Z,5.42
2022-11-16T22:13:56.848Z,5.38
2022-11-16T22:16:24.055Z,5.31
2022-11-16T22:18:51.452Z,5.31
2022-11-16T22:21:19.085Z,5.34
2022-11-16T22:23:46.319Z,5.28
2022-11-16T22:26:14.526Z,5.28
2022-11-16T22:28:41.836Z,5.26
2022-11-16T22:31:12.699Z,5.21
2022-11-16T22:33:40.182Z,5.28
2022-11-16T22:36:09.303Z,5.34
2022-11-16T22:38:37.169Z,5.29
2022-11-16T22:41:06.000Z,5.23
2022-11-16T22:43:33.964Z,5.18
2022-11-16T22:46:04.283Z,5.16
2022-11-16T22:48:35.243Z,5.14
2022-11-16T22:51:07.172Z,5.19
2022-11-16T22:53:35.217Z,5.16
2022-11-16T22:56:05.052Z,5.15
2022-11-16T22:58:32.275Z,5.17
2022-11-16T23:00:59.482Z,5.14
2022-11-16T23:03:26.711Z,5.11
2022-11-16T23:05:53.950Z,5.13
2022-11-16T23:08:24.781Z,5.23
2022-11-16T23:11:21.759Z,5.18
2022-11-16T23:14:07.550Z,5.04
2022-11-16T23:16:35.263Z,4.98
2022-11-16T23:19:02.974Z,4.98
2022-11-16T23:21:48.892Z,5.05
2022-11-16T23:24:35.189Z,5.02
2022-11-16T23:27:22.694Z,5.07
2022-11-16T23:29:50.231Z,5.07
2022-11-16T23:32:17.513Z,5.02
2022-11-16T23:34:44.698Z,5.00
2022-11-16T23:37:11.831Z,4.98
2022-11-16T23:39:39.205Z,5.01
2022-11-16T23:42:25.169Z,5.01
2022-11-16T23:44:52.360Z,4.99
2022-11-16T23:47:19.577Z,4.97
2022-11-16T23:49:46.752Z,4.93
2022-11-16T23:52:14.218Z,4.93
2022-11-16T23:54:41.427Z,4.88
2022-11-16T23:57:08.700Z,4.97
2022-11-16T23:59:36.080Z,5.00
